createdAt,value
2022-10-01T00:01:25.131Z,4.00
2022-10-01T00:03:53.412Z,4.40
2022-10-01T00:06:24.834Z,4.65
2022-10-01T00:08:52.802Z,3.95
2022-10-01T00:11:23.989Z,3.45
2022-10-01T00:13:51.962Z,3.25
2022-10-01T00:16:25.653Z,3.45
2022-10-01T00:18:56.796Z,3.58
2022-10-01T00:21:28.524Z,3.33
2022-10-01T00:24:01.862Z,3.17
2022-10-01T00:26:31.918Z,3.05
2022-10-01T00:29:02.529Z,3.70
2022-10-01T00:31:30.454Z,3.67
2022-10-01T00:33:59.409Z,4.00
2022-10-01T00:36:27.565Z,3.53
2022-10-01T00:38:59.011Z,3.20
2022-10-01T00:41:27.895Z,3.15
2022-10-01T00:44:01.380Z,2.90
2022-10-01T00:46:41.430Z,3.13
2022-10-01T00:49:20.416Z,3.17
2022-10-01T00:51:52.955Z,2.95
2022-10-01T00:54:24.514Z,3.10
2022-10-01T00:56:55.814Z,2.97
2022-10-01T00:59:23.910Z,3.22
2022-10-01T01:01:51.861Z,3.20
2022-10-01T01:04:19.374Z,2.42
2022-10-01T01:06:58.642Z,2.72
2022-10-01T01:09:36.570Z,2.38
2022-10-01T01:12:14.596Z,1.90
2022-10-01T01:14:54.619Z,2.03
2022-10-01T01:17:33.506Z,2.08
2022-10-01T01:20:29.067Z,2.05
2022-10-01T01:23:16.448Z,1.63
2022-10-01T01:25:48.391Z,2.10
2022-10-01T01:28:31.954Z,2.08
2022-10-01T01:31:05.357Z,1.92
2022-10-01T01:33:37.586Z,2.20
2022-10-01T01:36:11.269Z,2.15
2022-10-01T01:38:51.952Z,1.90
2022-10-01T01:41:21.489Z,2.00
2022-10-01T01:43:52.180Z,1.90
2022-10-01T01:46:21.320Z,1.65
2022-10-01T01:48:53.572Z,1.83
2022-10-01T01:51:46.844Z,1.67
2022-10-01T01:54:14.227Z,1.80
2022-10-01T01:56:41.760Z,1.98
2022-10-01T01:59:09.861Z,1.48
2022-10-01T02:01:42.709Z,1.58
2022-10-01T02:04:24.076Z,1.60
2022-10-01T02:07:03.505Z,1.40
2022-10-01T02:09:44.087Z,1.55
2022-10-01T02:12:25.086Z,1.38
2022-10-01T02:14:55.265Z,1.40
2022-10-01T02:17:52.657Z,1.33
2022-10-01T02:20:26.316Z,1.45
2022-10-01T02:23:15.936Z,1.35
2022-10-01T02:25:48.765Z,1.30
2022-10-01T02:28:20.137Z,1.30
2022-10-01T02:30:48.911Z,1.60
2022-10-01T02:33:23.262Z,1.45
2022-10-01T02:35:53.163Z,1.30
2022-10-01T02:38:23.927Z,1.30
2022-10-01T02:40:55.060Z,1.30
2022-10-01T02:43:42.794Z,1.20
2022-10-01T02:46:42.491Z,1.42
2022-10-01T02:49:10.736Z,1.42
2022-10-01T02:52:05.541Z,1.40
2022-10-01T02:54:42.166Z,1.45
2022-10-01T02:57:24.696Z,1.40
2022-10-01T02:59:52.581Z,1.67
2022-10-01T03:02:21.032Z,1.65
2022-10-01T03:04:48.815Z,1.50
2022-10-01T03:07:17.301Z,1.70
2022-10-01T03:09:44.737Z,1.70
2022-10-01T03:12:12.083Z,1.65
2022-10-01T03:14:39.635Z,1.50
2022-10-01T03:17:08.026Z,2.10
2022-10-01T03:19:35.375Z,1.40
2022-10-01T03:22:03.005Z,1.88
2022-10-01T03:24:30.411Z,1.80
2022-10-01T03:26:57.871Z,1.60
2022-10-01T03:29:26.066Z,1.60
2022-10-01T03:31:54.178Z,1.67
2022-10-01T03:34:21.978Z,1.50
2022-10-01T03:36:50.462Z,1.40
2022-10-01T03:39:18.119Z,1.50
2022-10-01T03:41:45.946Z,1.95
2022-10-01T03:44:13.347Z,1.52
2022-10-01T03:46:40.677Z,1.67
2022-10-01T03:49:08.134Z,1.58
2022-10-01T03:51:37.655Z,1.60
2022-10-01T03:54:07.092Z,1.98
2022-10-01T03:56:35.785Z,1.50
2022-10-01T03:59:03.147Z,1.65
2022-10-01T04:01:31.391Z,1.40
2022-10-01T04:03:59.002Z,1.73
2022-10-01T04:06:26.422Z,1.55
2022-10-01T04:08:53.667Z,1.48
2022-10-01T04:11:21.911Z,1.50
2022-10-01T04:13:49.347Z,1.70
2022-10-01T04:16:17.045Z,2.17
2022-10-01T04:18:44.341Z,1.98
2022-10-01T04:21:13.094Z,1.95
2022-10-01T04:23:40.398Z,2.10
2022-10-01T04:26:08.226Z,2.13
2022-10-01T04:28:36.767Z,2.30
2022-10-01T04:31:23.768Z,2.70
2022-10-01T04:33:52.524Z,2.60
2022-10-01T04:36:22.672Z,2.35
2022-10-01T04:38:57.871Z,2.17
2022-10-01T04:43:53.630Z,3.25
2022-10-01T04:46:21.081Z,3.03
2022-10-01T04:48:49.720Z,2.83
2022-10-01T04:51:17.762Z,2.95
2022-10-01T04:53:45.133Z,3.00
2022-10-01T04:56:14.980Z,2.92
2022-10-01T04:58:42.477Z,3.03
2022-10-01T05:01:09.834Z,3.03
2022-10-01T05:03:37.133Z,2.63
2022-10-01T05:06:04.783Z,2.78
2022-10-01T05:08:32.129Z,2.53
2022-10-01T05:11:00.779Z,2.50
2022-10-01T05:13:30.515Z,2.17
2022-10-01T05:15:58.811Z,2.47
2022-10-01T05:18:26.327Z,2.35
2022-10-01T05:20:53.774Z,3.00
2022-10-01T05:23:21.114Z,3.25
2022-10-01T05:25:48.524Z,2.65
2022-10-01T05:28:21.389Z,2.83
2022-10-01T05:30:49.458Z,3.22
2022-10-01T05:33:17.118Z,3.00
2022-10-01T05:35:44.848Z,2.70
2022-10-01T05:38:12.176Z,2.90
2022-10-01T05:40:39.424Z,2.72
2022-10-01T05:43:06.685Z,3.05
2022-10-01T05:45:36.445Z,2.67
2022-10-01T05:48:06.609Z,2.92
2022-10-01T05:50:42.678Z,3.50
2022-10-01T05:53:12.224Z,2.67
2022-10-01T05:55:41.243Z,2.72
2022-10-01T05:58:11.166Z,2.60
2022-10-01T06:00:40.474Z,2.88
2022-10-01T06:03:08.486Z,2.70
2022-10-01T06:05:38.177Z,2.80
2022-10-01T06:08:07.185Z,2.88
2022-10-01T06:10:35.319Z,3.03
2022-10-01T06:13:05.804Z,3.08
2022-10-01T06:15:37.775Z,2.53
2022-10-01T06:18:09.628Z,3.15
2022-10-01T06:20:37.606Z,3.20
2022-10-01T06:23:07.615Z,3.13
2022-10-01T06:25:36.692Z,3.28
2022-10-01T06:28:06.147Z,3.10
2022-10-01T06:30:37.040Z,3.22
2022-10-01T06:33:15.520Z,2.53
2022-10-01T06:35:51.325Z,2.90
2022-10-01T06:38:20.881Z,3.20
2022-10-01T06:40:55.878Z,2.53
2022-10-01T06:43:24.694Z,2.63
2022-10-01T06:45:52.259Z,3.00
2022-10-01T06:48:20.684Z,2.83
2022-10-01T06:50:50.710Z,3.05
2022-10-01T06:53:18.784Z,3.25
2022-10-01T06:55:46.482Z,3.38
2022-10-01T06:58:17.216Z,3.05
2022-10-01T07:00:45.050Z,3.38
2022-10-01T07:03:18.597Z,3.75
2022-10-01T07:05:46.210Z,4.13
2022-10-01T07:08:14.094Z,4.63
2022-10-01T07:10:43.346Z,4.75
2022-10-01T07:13:18.800Z,3.72
2022-10-01T07:18:14.064Z,3.45
2022-10-01T07:20:42.070Z,2.75
2022-10-01T07:23:13.505Z,3.78
2022-10-01T07:25:41.980Z,2.67
2022-10-01T07:28:16.756Z,2.92
2022-10-01T07:31:06.954Z,3.13
2022-10-01T07:33:34.462Z,2.75
2022-10-01T07:36:07.010Z,3.17
2022-10-01T07:38:34.734Z,2.83
2022-10-01T07:41:03.672Z,2.90
2022-10-01T07:43:32.656Z,2.90
2022-10-01T07:46:00.436Z,2.70
2022-10-01T07:48:28.466Z,3.03
2022-10-01T07:50:55.978Z,3.78
2022-10-01T07:53:24.174Z,3.20
2022-10-01T07:55:51.631Z,2.67
2022-10-01T07:58:19.185Z,3.13
2022-10-01T08:00:46.587Z,4.00
2022-10-01T08:03:15.093Z,3.97
2022-10-01T08:05:46.981Z,4.72
2022-10-01T08:08:14.312Z,4.50
2022-10-01T08:10:42.353Z,4.93
2022-10-01T08:13:15.036Z,4.55
2022-10-01T08:15:47.139Z,4.90
2022-10-01T08:18:14.897Z,4.47
2022-10-01T08:20:42.335Z,4.32
2022-10-01T08:23:11.707Z,4.70
2022-10-01T08:25:40.046Z,3.97
2022-10-01T08:28:08.720Z,3.33
2022-10-01T08:30:39.986Z,3.63
2022-10-01T08:33:09.912Z,3.65
2022-10-01T08:35:39.886Z,2.40
2022-10-01T08:38:08.226Z,2.35
2022-10-01T08:40:41.568Z,3.42
2022-10-01T08:43:33.062Z,2.90
2022-10-01T08:46:06.471Z,3.30
2022-10-01T08:48:57.538Z,2.70
2022-10-01T08:51:46.827Z,3.10
2022-10-01T08:54:29.230Z,2.88
2022-10-01T08:57:07.381Z,2.97
2022-10-01T08:59:44.512Z,2.35
2022-10-01T09:02:23.787Z,2.72
2022-10-01T09:05:02.396Z,2.53
2022-10-01T09:07:40.966Z,2.70
2022-10-01T09:10:28.348Z,3.20
2022-10-01T09:13:21.047Z,2.67
2022-10-01T09:16:28.572Z,3.08
2022-10-01T09:19:10.984Z,2.92
2022-10-01T09:21:58.147Z,4.53
2022-10-01T09:24:41.455Z,3.85
2022-10-01T09:27:18.062Z,3.78
2022-10-01T09:30:07.807Z,3.90
2022-10-01T09:32:58.611Z,2.92
2022-10-01T09:35:48.752Z,3.10
2022-10-01T09:38:43.046Z,2.95
2022-10-01T09:41:13.001Z,3.97
2022-10-01T09:43:42.742Z,3.20
2022-10-01T09:46:15.489Z,2.45
2022-10-01T09:48:57.286Z,2.95
2022-10-01T09:51:34.068Z,2.80
2022-10-01T09:54:22.786Z,3.25
2022-10-01T09:57:15.238Z,3.05
2022-10-01T09:59:45.144Z,2.63
2022-10-01T10:02:26.020Z,2.30
2022-10-01T10:05:07.774Z,2.60
2022-10-01T10:07:35.625Z,2.33
2022-10-01T10:10:23.260Z,3.00
2022-10-01T10:13:02.477Z,3.10
2022-10-01T10:15:33.433Z,2.72
2022-10-01T10:18:13.034Z,2.80
2022-10-01T10:20:45.150Z,2.63
2022-10-01T10:23:23.379Z,2.90
2022-10-01T10:26:01.100Z,3.17
2022-10-01T10:28:56.572Z,3.33
2022-10-01T10:31:30.469Z,3.17
2022-10-01T10:34:08.518Z,3.95
2022-10-01T10:36:37.459Z,3.95
2022-10-01T10:39:11.945Z,3.85
2022-10-01T10:41:45.127Z,4.05
2022-10-01T10:44:16.734Z,6.65
2022-10-01T10:46:46.381Z,6.13
2022-10-01T10:49:44.768Z,3.95
2022-10-01T10:52:21.502Z,3.65
2022-10-01T10:54:52.259Z,3.75
2022-10-01T10:57:29.308Z,3.10
2022-10-01T11:00:20.646Z,3.53
2022-10-01T11:03:04.954Z,2.75
2022-10-01T11:05:39.812Z,2.30
2022-10-01T11:08:09.130Z,2.03
2022-10-01T11:10:45.443Z,2.53
2022-10-01T11:13:43.372Z,3.10
2022-10-01T11:16:39.648Z,1.77
2022-10-01T11:19:35.240Z,2.00
2022-10-01T11:22:23.981Z,2.40
2022-10-01T11:25:15.491Z,2.25
2022-10-01T11:28:15.914Z,2.20
2022-10-01T11:31:29.661Z,2.40
2022-10-01T11:34:41.067Z,2.30
2022-10-01T11:37:32.956Z,2.72
2022-10-01T11:40:05.504Z,2.40
2022-10-01T11:42:38.184Z,2.63
2022-10-01T11:45:25.653Z,2.30
2022-10-01T11:48:06.339Z,2.20
2022-10-01T11:50:45.876Z,2.30
2022-10-01T11:53:17.370Z,2.47
2022-10-01T11:56:10.671Z,3.15
2022-10-01T11:58:57.529Z,2.42
2022-10-01T12:01:28.165Z,2.33
2022-10-01T12:04:00.945Z,2.92
2022-10-01T12:06:58.339Z,2.55
2022-10-01T12:10:02.940Z,2.40
2022-10-01T12:12:45.974Z,1.85
2022-10-01T12:15:31.579Z,2.20
2022-10-01T12:18:48.955Z,3.25
2022-10-01T12:22:07.480Z,3.10
2022-10-01T12:24:41.064Z,2.78
2022-10-01T12:27:29.746Z,3.38
2022-10-01T12:30:05.560Z,3.33
2022-10-01T12:33:04.911Z,3.30
2022-10-01T12:35:50.801Z,3.33
2022-10-01T12:38:26.694Z,3.35
2022-10-01T12:41:23.681Z,2.70
2022-10-01T12:44:18.667Z,2.78
2022-10-01T12:47:02.689Z,2.77
2022-10-01T12:49:48.956Z,2.80
2022-10-01T12:52:33.952Z,2.55
2022-10-01T12:55:16.581Z,2.63
2022-10-01T12:57:58.965Z,3.05
2022-10-01T13:00:32.569Z,3.05
2022-10-01T13:03:24.656Z,3.47
2022-10-01T13:06:05.553Z,3.80
2022-10-01T13:08:41.670Z,3.25
2022-10-01T13:11:24.612Z,3.33
2022-10-01T13:13:53.839Z,3.33
2022-10-01T13:16:29.423Z,3.20
2022-10-01T13:19:15.750Z,3.55
2022-10-01T13:22:38.636Z,3.70
2022-10-01T13:25:36.531Z,3.22
2022-10-01T13:28:27.837Z,2.65
2022-10-01T13:31:10.884Z,3.28
2022-10-01T13:33:38.343Z,3.38
2022-10-01T13:36:08.191Z,3.15
2022-10-01T13:38:43.849Z,2.47
2022-10-01T13:41:23.027Z,2.70
2022-10-01T13:43:59.441Z,2.63
2022-10-01T13:46:33.390Z,2.55
2022-10-01T13:49:14.052Z,2.90
2022-10-01T13:51:45.181Z,2.90
2022-10-01T13:54:36.848Z,2.88
2022-10-01T13:57:35.029Z,3.13
2022-10-01T14:00:17.435Z,2.83
2022-10-01T14:03:00.552Z,3.25
2022-10-01T14:05:38.656Z,3.20
2022-10-01T14:08:31.162Z,3.85
2022-10-01T14:11:36.456Z,3.03
2022-10-01T14:14:39.517Z,3.83
2022-10-01T14:17:09.938Z,3.83
2022-10-01T14:19:44.751Z,4.20
2022-10-01T14:22:23.997Z,3.78
2022-10-01T14:25:08.256Z,4.07
2022-10-01T14:28:07.017Z,3.65
2022-10-01T14:31:07.645Z,3.85
2022-10-01T14:33:46.738Z,4.63
2022-10-01T14:36:29.923Z,4.72
2022-10-01T14:39:42.511Z,4.63
2022-10-01T14:42:17.119Z,5.00
2022-10-01T14:44:48.153Z,4.70
2022-10-01T14:47:28.099Z,4.57
2022-10-01T14:49:55.826Z,5.15
2022-10-01T14:52:27.214Z,4.88
2022-10-01T14:54:58.073Z,5.63
2022-10-01T14:57:38.391Z,6.00
2022-10-01T15:00:11.480Z,6.32
2022-10-01T15:02:47.713Z,5.55
2022-10-01T15:05:29.323Z,5.85
2022-10-01T15:07:56.868Z,6.10
2022-10-01T15:10:28.331Z,8.45
2022-10-01T15:12:56.579Z,7.38
2022-10-01T15:15:33.427Z,8.00
2022-10-01T15:18:04.713Z,6.78
2022-10-01T15:20:32.144Z,8.35
2022-10-01T15:23:01.679Z,8.55
2022-10-01T15:25:32.070Z,8.75
2022-10-01T15:27:59.535Z,9.25
2022-10-01T15:30:28.443Z,8.20
2022-10-01T15:32:56.202Z,8.90
2022-10-01T15:35:24.437Z,9.73
2022-10-01T15:37:53.039Z,9.30
2022-10-01T15:40:30.518Z,9.23
2022-10-01T15:43:09.804Z,9.75
2022-10-01T15:45:37.364Z,9.45
2022-10-01T15:48:06.171Z,9.23
2022-10-01T15:50:39.489Z,10.35
2022-10-01T15:53:15.460Z,10.65
2022-10-01T15:55:46.892Z,10.02
2022-10-01T15:58:19.844Z,9.88
2022-10-01T16:00:50.519Z,9.13
2022-10-01T16:03:39.802Z,10.35
2022-10-01T16:06:25.487Z,12.30
2022-10-01T16:11:37.800Z,10.60
2022-10-01T16:14:44.446Z,8.60
2022-10-01T16:17:18.358Z,6.10
2022-10-01T16:20:00.109Z,4.38
2022-10-01T16:22:31.978Z,4.63
2022-10-01T16:25:26.258Z,5.60
2022-10-01T16:28:06.868Z,6.05
2022-10-01T16:30:34.643Z,6.30
2022-10-01T16:33:04.995Z,6.10
2022-10-01T16:35:36.056Z,6.57
2022-10-01T16:38:08.659Z,6.43
2022-10-01T16:40:42.549Z,7.22
2022-10-01T16:43:25.170Z,7.38
2022-10-01T16:45:52.537Z,6.88
2022-10-01T16:48:24.886Z,7.40
2022-10-01T16:50:54.023Z,8.95
2022-10-01T16:53:28.695Z,9.10
2022-10-01T16:55:58.360Z,8.60
2022-10-01T16:58:28.383Z,9.35
2022-10-01T17:00:55.747Z,9.80
2022-10-01T17:03:25.397Z,8.80
2022-10-01T17:05:56.041Z,9.13
2022-10-01T17:08:25.846Z,8.18
2022-10-01T17:11:01.092Z,8.80
2022-10-01T17:13:30.531Z,10.18
2022-10-01T17:15:58.249Z,8.77
2022-10-01T17:18:25.705Z,8.60
2022-10-01T17:20:54.155Z,7.40
2022-10-01T17:23:22.653Z,7.63
2022-10-01T17:25:50.106Z,8.80
2022-10-01T17:28:20.414Z,9.75
2022-10-01T17:30:49.283Z,8.63
2022-10-01T17:33:19.589Z,9.93
2022-10-01T17:35:54.852Z,10.55
2022-10-01T17:38:23.076Z,10.70
2022-10-01T17:40:55.660Z,7.13
2022-10-01T17:43:23.997Z,9.43
2022-10-01T17:46:00.581Z,9.50
2022-10-01T17:48:29.366Z,9.02
2022-10-01T17:51:05.871Z,9.00
2022-10-01T17:53:41.130Z,8.20
2022-10-01T17:56:18.353Z,7.78
2022-10-01T17:58:46.468Z,6.95
2022-10-01T18:01:19.867Z,7.20
2022-10-01T18:03:57.876Z,7.63
2022-10-01T18:06:25.730Z,6.88
2022-10-01T18:08:56.235Z,6.57
2022-10-01T18:11:28.782Z,6.70
2022-10-01T18:13:58.640Z,7.80
2022-10-01T18:16:27.090Z,7.75
2022-10-01T18:21:46.205Z,8.27
2022-10-01T18:24:14.754Z,7.95
2022-10-01T18:26:42.188Z,8.23
2022-10-01T18:29:16.625Z,9.32
2022-10-01T18:31:47.000Z,8.40
2022-10-01T18:34:50.196Z,6.93
2022-10-01T18:37:40.282Z,7.43
2022-10-01T18:40:17.620Z,7.60
2022-10-01T18:43:04.845Z,7.28
2022-10-01T18:46:03.712Z,8.23
2022-10-01T18:48:52.741Z,7.82
2022-10-01T18:51:28.848Z,9.15
2022-10-01T18:54:17.877Z,8.23
2022-10-01T18:57:07.212Z,5.55
2022-10-01T19:00:03.390Z,4.68
2022-10-01T19:02:59.835Z,4.00
2022-10-01T19:05:39.241Z,4.32
2022-10-01T19:08:26.273Z,3.65
2022-10-01T19:11:18.394Z,3.63
2022-10-01T19:14:07.047Z,4.18
2022-10-01T19:17:18.657Z,3.97
2022-10-01T19:20:10.404Z,4.25
2022-10-01T19:22:40.985Z,3.90
2022-10-01T19:25:41.126Z,4.18
2022-10-01T19:28:46.817Z,3.53
2022-10-01T19:31:38.374Z,3.42
2022-10-01T19:34:14.412Z,2.65
2022-10-01T19:36:50.201Z,3.35
2022-10-01T19:39:23.555Z,3.40
2022-10-01T19:42:22.783Z,3.75
2022-10-01T19:45:03.379Z,3.80
2022-10-01T19:47:51.697Z,4.40
2022-10-01T19:50:29.326Z,3.78
2022-10-01T19:52:59.636Z,3.80
2022-10-01T19:55:33.985Z,3.55
2022-10-01T19:58:17.227Z,3.55
2022-10-01T20:00:47.965Z,4.18
2022-10-01T20:03:39.693Z,3.08
2022-10-01T20:06:20.149Z,3.60
2022-10-01T20:08:59.775Z,3.65
2022-10-01T20:11:31.731Z,3.00
2022-10-01T20:14:11.115Z,2.90
2022-10-01T20:16:44.098Z,2.60
2022-10-01T20:19:41.600Z,2.72
2022-10-01T20:22:40.499Z,1.95
2022-10-01T20:25:24.698Z,2.20
2022-10-01T20:28:44.902Z,1.67
2022-10-01T20:31:40.622Z,2.28
2022-10-01T20:34:58.418Z,1.98
2022-10-01T20:38:07.177Z,2.28
2022-10-01T20:40:49.852Z,2.45
2022-10-01T20:43:28.967Z,2.03
2022-10-01T20:45:57.449Z,2.08
2022-10-01T20:48:33.365Z,2.33
2022-10-01T20:51:04.879Z,2.85
2022-10-01T20:53:51.438Z,2.60
2022-10-01T20:56:25.658Z,3.10
2022-10-01T20:59:27.694Z,3.42
2022-10-01T21:02:14.277Z,4.38
2022-10-01T21:04:53.221Z,2.80
2022-10-01T21:07:58.168Z,2.55
2022-10-01T21:10:46.715Z,2.83
2022-10-01T21:13:16.638Z,2.45
2022-10-01T21:16:08.993Z,2.22
2022-10-01T21:18:42.452Z,2.10
2022-10-01T21:21:24.584Z,2.30
2022-10-01T21:24:06.182Z,2.03
2022-10-01T21:26:57.694Z,2.28
2022-10-01T21:29:30.882Z,1.98
2022-10-01T21:32:16.994Z,2.40
2022-10-01T21:35:24.803Z,2.42
2022-10-01T21:38:12.935Z,2.40
2022-10-01T21:41:08.079Z,2.53
2022-10-01T21:43:44.007Z,2.55
2022-10-01T21:46:39.439Z,2.40
2022-10-01T21:49:10.244Z,2.75
2022-10-01T21:51:58.855Z,2.53
2022-10-01T21:54:35.135Z,2.70
2022-10-01T21:57:27.164Z,3.13
2022-10-01T22:00:35.513Z,2.13
2022-10-01T22:03:11.519Z,2.90
2022-10-01T22:05:53.870Z,2.30
2022-10-01T22:08:27.964Z,2.60
2022-10-01T22:11:02.000Z,2.47
2022-10-01T22:13:38.065Z,2.85
2022-10-01T22:16:14.645Z,2.80
2022-10-01T22:19:03.455Z,2.75
2022-10-01T22:21:41.431Z,2.30
2022-10-01T22:24:31.294Z,2.47
2022-10-01T22:27:13.874Z,2.85
2022-10-01T22:29:47.575Z,3.03
2022-10-01T22:32:17.803Z,2.80
2022-10-01T22:34:50.485Z,2.50
2022-10-01T22:37:24.291Z,2.67
2022-10-01T22:40:07.927Z,2.75
2022-10-01T22:42:44.744Z,2.65
2022-10-01T22:45:18.035Z,2.30
2022-10-01T22:48:08.745Z,2.35
2022-10-01T22:50:54.929Z,2.83
2022-10-01T22:53:38.210Z,2.58
2022-10-01T22:56:07.305Z,2.60
2022-10-01T22:59:01.073Z,2.67
2022-10-01T23:01:56.566Z,2.60
2022-10-01T23:04:34.840Z,2.30
2022-10-01T23:07:15.950Z,2.67
2022-10-01T23:09:55.622Z,2.78
2022-10-01T23:12:51.865Z,2.67
2022-10-01T23:15:33.995Z,2.67
2022-10-01T23:18:30.753Z,2.38
2022-10-01T23:21:53.818Z,2.30
2022-10-01T23:24:32.022Z,2.15
2022-10-01T23:27:14.251Z,2.22
2022-10-01T23:30:09.087Z,2.25
2022-10-01T23:32:51.524Z,2.58
2022-10-01T23:35:23.520Z,2.20
2022-10-01T23:38:10.864Z,2.47
2022-10-01T23:40:43.835Z,2.45
2022-10-01T23:43:19.989Z,2.38
2022-10-01T23:45:55.167Z,2.53
2022-10-01T23:48:30.015Z,2.00
2022-10-01T23:51:09.752Z,2.80
2022-10-01T23:54:07.442Z,2.60
2022-10-01T23:56:52.275Z,2.28
2022-10-01T23:59:44.421Z,2.30
